Cumberland: Past 24 Hour Conditions

 

Nain Airport

05:00 AM AST 16 January 2018
Disclaimer

This table is a summary of hourly weather conditions for the past 24 hours.
Please note that these observations might not always be representative of weather conditions over their associated marine area.

Date / Time
(AST)
Wind(knots) Conditions Visibility(km) Pressure(kPa) Air tempC) Relative humidity(%) Dew pointC) Wind Chill
16 January 2018
5:00 N 6 Clear 24 103.3 -20 62 -26 -28
4:00 E 4 N/A N/A 103.3 -21 66 -26 -27
3:00 SE 1 N/A N/A 103.4 -21 65 -25 -22
2:00 NW 10 N/A N/A 103.5 -20 64 -26 -31
1:00 W 11 N/A N/A 103.6 -20 64 -25 -31
0:00 NW 4 N/A N/A 103.6 -20 61 -26 -26
15 January 2018
23:00 WNW 23 gust 32 N/A N/A 103.6 -20 61 -25 -34
22:00 WNW 25 gust 33 N/A N/A 103.6 -20 62 -25 -35
21:00 W 27 gust 33 N/A N/A 103.6 -20 63 -26 -36
20:00 WNW 15 gust 22 Clear 24 103.6 -21 57 -27 -33
19:00 W 14 gust 25 Clear 24 103.7 -21 57 -28 -33
18:00 WSW 14 gust 24 Clear 24 103.7 -22 59 -28 -34
17:00 WSW 18 gust 26 Mainly Clear 24 103.7 -22 58 -28 -36
16:00 W 24 gust 30 Mainly Sunny 24 103.6 -22 61 -28 -38
15:00 W 19 gust 33 Mainly Sunny 24 103.6 -22 59 -28 -37
14:00 WNW 14 gust 27 Mainly Sunny 24 103.6 -22 56 -29 -35
13:00 WNW 15 Mainly Sunny 24 103.6 -23 56 -29 -36
12:00 W 15 gust 23 Sunny 24 103.5 -23 56 -30 -36
11:00 W 14 gust 26 Sunny 24 103.5 -24 56 -30 -36
10:00 WSW 7 gust 22 Sunny 24 103.5 -24 58 -30 -33
9:00 W 18 gust 25 Sunny 24 103.4 -24 59 -30 -38
8:00 WNW 23 gust 32 Clear 24 103.4 -23 62 -29 -39
7:00 W 28 gust 36 Clear 24 103.2 -24 62 -29 -41
6:00 WNW 24 gust 31 Clear 24 103.3 -24 58 -30 -40
5:00 WNW 19 gust 32 Clear 24 103.2 -24 59 -30 -38

Zoom-in to make a selection

Map of Arctic - Eastern Arctic marine weather areas Baker Lake Airport Chesterfield Inlet Airport Coral Harbour Airport Gjoa Haven Airport Kugaaruk Airport Rankin Inlet Airport Shepherd Bay Airport Whale Cove Airport Arctic Bay Brevoort Island Qikiqtarjuaq Airport Cape Dorset Airport Cape Dyer Cape Hooper Clyde River Airport Grise Fiord Airport Hall Beach Airport Igloolik Airport Iqaluit Airport Longstaff Bluff Pangnirtung Airport Pond Inlet Airport Naujaat Resolute Airport Resolution Island Rowley Island Airport Taloyoak Airport Wager Bay Akulivik Airport Ivujivik Airport Puvirnituq Airport Kangiqsujuaq Airport Kangirsuk Airport Quaqtaq Airport Tasiujaq Airport Cape Kakkiviak Cape Kiglapait Nain Airport Saglek Cape Mercy Kimmirut Airport Aupaluk Airport Salluit Airport Kangiqsualujjuaq Airport Cape Liverpool Fort Ross
Legend:
buoy Buoy
land station Land Station

Arctic - Eastern Arctic Area

Another Region

What we are doing

Date modified: